x

Long Island - 30 Nm South Of Islip, Ny (44025) Wave Buoy

12:50pm - Wed 1st Oct 2014 All times are EDT. -4 hours from GMT.

  • Sig Wave height 4.3ft
  • Swell Direction
  • Peak Period 6s
  • Average Period 5s
  • Wind
    16mph, 20mph gusts
  • Sea Temp 67°f
  • Air Temp 62°f
  • Sea Pressure 1016mb
  • Long Island - 30 Nm South Of Islip, Ny
  • Long Island - 30 Nm South Of Islip, Ny

More Historic Weather Station data

Upgrade to MSW Pro to gain access to the past 30 days of data for over 8000 Wavebouys and Weather Stations around the globe.

Join Pro

Comparision Forecast

View Surf forecast
   
Wed 10/01 12:50pm 4.5ft 6s 5s 16 20 mph 1016mb 67f 62f
11:50am 4ft 6s 5s 16 18 mph 1016.2mb 67f 63f
10:50am 4.5ft 6s 5s 16 18 mph 1016.2mb 67f 63f
9:50am 4ft 6s 5s 16 18 mph 1015.8mb 67f 63f
8:50am 4.5ft 6s 5s 18 22 mph 1015.3mb 67f 63f
7:50am 4.5ft 6s 5s 18 20 mph 1015.2mb 67f 63f
6:50am 4ft 6s 5s 16 20 mph 1014.8mb 67f 62f
5:50am 4.5ft 6s 5s 16 20 mph 1014.6mb 67f 62f
4:50am 4.5ft 6s 5s 18 20 mph 1014.1mb 67f 62f
3:50am 4.5ft 6s 5s 16 20 mph 1014.1mb 67f 63f
2:50am 5ft 6s 5s 18 22 mph 1013.9mb 67f 63f
1:50am 4.5ft 5s 5s 20 22 mph 1014.2mb 67f 63f
12:50am 5ft 6s 5s 20 22 mph 1014mb 67f 64f
Tue 09/30 11:50pm 4.5ft 5s 5s 22 25 mph 1013.9mb 67f 63f
10:50pm 4.5ft 6s 4s 20 25 mph 1014.2mb 67f 63f
9:50pm 5ft 6s 5s 22 25 mph 1013.9mb 67f 63f
8:50pm 4.5ft 6s 4s 22 25 mph 1013.8mb 67f 64f
7:50pm 4.5ft 5s 4s 22 25 mph 1013.4mb 67f 64f
6:50pm 4ft 5s 4s 20 22 mph 1013.3mb 67f 65f
5:50pm 3.5ft 5s 4s 20 25 mph 1012.6mb 67f 65f
4:50pm 3.5ft 6s 4s 20 22 mph 1012.8mb 67f 65f
3:50pm 3.5ft 5s 4s 18 20 mph 1012.6mb 67f 65f
2:50pm 3ft 5s 4s 20 22 mph 1013.2mb 67f 64f
1:50pm 3.5ft 5s 4s 13 18 mph 1014mb 67f 65f
12:50pm 3ft 5s 4s 13 16 mph 1014.2mb 67f 65f
11:50am 2.5ft 4s 4s 16 20 mph 1013.9mb 67f 65f
10:50am 1.6ft 8s 6s 13 18 mph 1014.1mb 67f 66f
9:50am 1.6ft 6s 6s 7 9 mph 1014.5mb 67f 64f
8:50am 1.6ft 8s 6s 2
mph
1014.7mb 68f 67f
7:50am 1.6ft 8s 6s 7
mph
1014.5mb 68f 68f
6:50am 1.6ft 8s 6s 7 9 mph 1013.6mb 68f 68f
5:50am 1.6ft 8s 5s 9
mph
1013.2mb 68f 68f
4:50am 1.6ft 8s 5s 9 11 mph 1012.8mb 68f 68f
3:50am 1.6ft 8s 4s 11
mph
1013.1mb 68f 68f
2:50am 1.6ft 7s 5s 16 18 mph 1012.9mb 68f 68f
1:50am 1.6ft 7s 5s 9 11 mph 1013.4mb 68f 68f
12:50am 1.6ft 7s 4s 11
mph
1013.4mb 67f 68f
Mon 09/29 11:50pm 1.6ft 8s 4s 11
mph
1013.6mb 67f 68f
10:50pm 2ft 7s 4s 11 13 mph 1013.9mb 68f 68f
9:50pm 2ft 8s 4s 11 13 mph 1013.8mb 68f 68f
8:50pm 1.6ft 8s 4s 11 13 mph 1013.5mb 68f 68f
7:50pm 1.6ft 7s 4s 11 13 mph 1013.3mb 68f 68f
6:50pm 1.6ft 7s 5s 11
mph
1013.5mb 68f 68f
5:50pm 1.6ft 8s 5s 11 13 mph 1013.6mb 68f 68f
4:50pm 1.6ft 8s 5s 7 9 mph 1013.2mb 68f 68f
3:50pm 1.6ft 8s 5s 7
mph
1013.6mb 68f 68f
2:50pm 1.6ft 8s 4s 7 9 mph 1013.9mb 68f 68f
1:50pm 1.6ft 8s 4s 9 11 mph 1014mb 68f 68f
12:50pm 2ft 7s 4s 7 9 mph 1014.4mb 68f 68f
11:50am 2ft 8s 5s 7 9 mph 1014.8mb 68f 68f
10:50am 2ft 8s 4s 9 11 mph 1015mb 68f 68f
9:50am 2.5ft 9s 4s 9 11 mph 1015mb 67f 67f
8:50am 2ft 4s 4s 11 13 mph 1015.1mb 67f 67f
7:50am 2.5ft 4s 4s 11 13 mph 1015.5mb 67f 68f
6:50am 2.5ft 4s 4s 11 13 mph 1015.4mb 67f 68f
5:50am 2.5ft 4s 4s 9 11 mph 1015.2mb 67f 67f
4:50am 2.5ft 4s 4s 11 13 mph 1015.5mb 67f 67f
3:50am 2.5ft 4s 4s 13 16 mph 1015.5mb 67f 68f
2:50am 2.5ft 4s 4s 13 16 mph 1015.9mb 67f 68f
1:50am 2.5ft 8s 4s 13 16 mph 1016.4mb 67f 68f
12:50am 2.5ft 6s 4s 13 16 mph 1016.4mb 67f 68f
Sun 09/28 11:50pm 2.5ft 8s 4s 16 18 mph 1016.6mb 68f 68f
10:50pm 2.5ft 7s 4s 16 18 mph 1016.9mb 68f 68f
9:50pm 2.5ft 6s 5s 13 16 mph 1017.4mb 68f 69f
8:50pm 2ft 6s 4s 11 13 mph 1017.7mb 68f 68f
7:50pm 2.5ft 7s 5s 13
mph
1017.6mb 68f 68f
6:50pm 2ft 8s 5s 11 13 mph 1017.8mb 68f 69f
5:50pm 2ft 7s 5s 11 13 mph 1018.1mb 68f 69f
4:50pm 2ft 7s 5s 9 11 mph 1018.3mb 68f 69f
3:50pm 2ft 8s 5s 9 11 mph 1018.5mb 69f 69f
2:50pm 1.6ft 8s 5s 9 11 mph 1019.1mb 68f 69f
1:50pm 2ft 8s 6s 9 11 mph 1019.7mb 68f 69f
12:50pm 2ft 8s 6s 7
mph
1020.5mb 68f 69f
11:50am 2ft 7s 6s 7
mph
1020.9mb 68f 69f
10:50am 2ft 8s 6s 4
mph
1021.3mb 67f 68f
9:50am 2ft 8s 6s 4 7 mph 1021.7mb 67f 68f
8:50am 2.5ft 8s 6s 4 7 mph 1021.8mb 67f 68f
7:50am 2.5ft 7s 6s 4
mph
1021.8mb 67f 67f
6:50am 2.5ft 8s 6s 4 7 mph 1021.8mb 67f 67f
5:50am 2.5ft 7s 6s 4 7 mph 1021.9mb 67f 67f
4:50am 2.5ft 7s 6s 7
mph
1021.9mb 67f 68f
3:50am 2.5ft 8s 6s 4 7 mph 1021.7mb 68f 68f
2:50am 3ft 8s 7s 4
mph
1021.7mb 68f 68f
1:50am 2.5ft 8s 6s 4 7 mph 1021.8mb 69f 68f
12:50am 2.5ft 8s 6s 4
mph
1021.6mb 69f 68f
Sat 09/27 11:50pm 2.5ft 8s 6s 2
mph
1021.7mb 69f 68f
10:50pm 2.5ft 8s 6s 2
mph
1021.6mb 69f 69f
9:50pm 2.5ft 7s 6s 2 4 mph 1021.8mb 69f 69f
8:50pm 2.5ft 8s 6s 4 7 mph 1021.6mb 69f 69f
7:50pm 2.5ft 7s 6s 4
mph
1021.5mb 69f 69f
6:50pm 2.5ft 8s 6s 7 9 mph 1021.6mb 69f 69f
5:50pm 2.5ft 8s 6s 2 4 mph 1021.6mb 69f 70f